createdAt,value
2018-10-02T00:01:16.598Z,90.00
2018-10-02T00:03:44.687Z,89.70
2018-10-02T00:08:40.466Z,89.70
2018-10-02T00:11:14.016Z,89.60
2018-10-02T00:13:48.638Z,90.10
2018-10-02T00:16:16.684Z,89.70
2018-10-02T00:23:40.918Z,90.50
2018-10-02T00:26:08.922Z,90.30
2018-10-02T00:28:37.034Z,90.20
2018-10-02T00:31:05.127Z,90.20
2018-10-02T00:33:33.189Z,90.20
2018-10-02T00:36:01.256Z,90.10
2018-10-02T00:43:25.452Z,90.20
2018-10-02T00:48:21.608Z,89.40
2018-10-02T00:50:49.676Z,90.00
2018-10-02T00:53:17.748Z,90.00
2018-10-02T00:55:46.183Z,89.80
2018-10-02T01:00:42.264Z,89.00
2018-10-02T01:03:10.351Z,88.70
2018-10-02T01:08:06.204Z,88.80
2018-10-02T01:10:34.271Z,88.90
2018-10-02T01:15:30.223Z,88.20
2018-10-02T01:17:58.541Z,88.10
2018-10-02T01:25:22.724Z,86.40
2018-10-02T01:27:51.969Z,86.80
2018-10-02T01:30:20.124Z,86.90
2018-10-02T01:32:48.203Z,87.00
2018-10-02T01:35:16.549Z,86.80
2018-10-02T01:37:44.547Z,87.10
2018-10-02T01:40:14.427Z,87.00
2018-10-02T01:42:42.976Z,87.30
2018-10-02T01:45:11.264Z,87.90
2018-10-02T01:50:07.268Z,88.20
2018-10-02T01:52:35.489Z,87.90
2018-10-02T01:55:03.541Z,88.20
2018-10-02T02:00:00.191Z,88.50
2018-10-02T02:04:56.480Z,89.10
2018-10-02T02:07:24.475Z,89.50
2018-10-02T02:09:52.440Z,89.80
2018-10-02T02:14:49.421Z,89.80
2018-10-02T02:19:45.471Z,89.80
2018-10-02T02:22:13.598Z,89.80
2018-10-02T02:24:42.004Z,90.10
2018-10-02T02:27:10.292Z,90.50
2018-10-02T02:29:38.407Z,90.60
2018-10-02T02:32:06.440Z,90.90
2018-10-02T02:34:34.509Z,91.00
2018-10-02T02:37:02.569Z,91.00
2018-10-02T02:39:30.700Z,91.20
2018-10-02T02:41:58.685Z,91.00
2018-10-02T02:46:59.416Z,91.20
2018-10-02T02:49:32.883Z,91.20
2018-10-02T02:52:01.276Z,91.10
2018-10-02T02:56:57.316Z,91.30
2018-10-02T02:59:25.278Z,91.20
2018-10-02T03:04:21.479Z,91.20
2018-10-02T03:09:17.675Z,91.40
2018-10-02T03:11:45.719Z,91.40
2018-10-02T03:14:13.815Z,91.20
2018-10-02T03:16:41.848Z,91.70
2018-10-02T03:19:09.985Z,92.10
2018-10-02T03:21:38.042Z,92.50
2018-10-02T03:24:06.041Z,93.00
2018-10-02T03:26:35.099Z,92.90
2018-10-02T03:31:31.204Z,92.70
2018-10-02T03:33:59.256Z,92.60
2018-10-02T03:36:27.410Z,92.50
2018-10-02T03:41:23.511Z,92.10
2018-10-02T03:43:51.569Z,92.30
2018-10-02T03:46:19.564Z,92.60
2018-10-02T03:48:47.559Z,92.60
2018-10-02T03:51:15.760Z,92.70
2018-10-02T03:53:44.017Z,92.70
2018-10-02T03:56:12.210Z,92.80
2018-10-02T04:06:04.540Z,92.70
2018-10-02T04:08:32.621Z,93.50
2018-10-02T04:11:00.748Z,93.80
2018-10-02T04:13:29.165Z,94.00
2018-10-02T04:15:57.395Z,94.10
2018-10-02T04:18:25.497Z,94.30
2018-10-02T04:20:53.619Z,94.20
2018-10-02T04:28:17.808Z,94.00
2018-10-02T04:30:45.861Z,93.90
2018-10-02T04:35:42.038Z,93.50
2018-10-02T04:40:38.416Z,92.70
2018-10-02T04:43:06.540Z,92.30
2018-10-02T04:48:02.663Z,92.90
2018-10-02T04:50:32.044Z,92.40
2018-10-02T05:02:52.283Z,91.80
2018-10-02T05:05:20.384Z,91.60
2018-10-02T05:07:48.445Z,91.40
2018-10-02T05:10:17.063Z,90.50
2018-10-02T05:12:45.061Z,90.20
2018-10-02T05:15:13.260Z,90.40
2018-10-02T05:20:09.475Z,89.80
2018-10-02T05:22:37.482Z,89.70
2018-10-02T05:25:05.628Z,89.70
2018-10-02T05:27:33.642Z,89.70
2018-10-02T05:34:57.859Z,88.80
2018-10-02T05:39:53.968Z,87.10
2018-10-02T05:42:22.140Z,86.70
2018-10-02T05:48:42.949Z,86.50
2018-10-02T05:53:39.112Z,85.00
2018-10-02T05:58:35.304Z,84.70
2018-10-02T06:01:03.320Z,83.70
2018-10-02T06:03:31.453Z,83.00
2018-10-02T06:05:59.536Z,82.80
2018-10-02T06:10:55.657Z,81.50
2018-10-02T06:13:24.748Z,80.90
2018-10-02T06:15:53.375Z,81.50
2018-10-02T06:18:21.425Z,81.10
2018-10-02T06:20:49.452Z,81.10
2018-10-02T06:23:17.619Z,80.70
2018-10-02T06:25:46.853Z,80.40
2018-10-02T06:28:14.902Z,80.50
2018-10-02T06:30:42.979Z,79.80
2018-10-02T06:33:12.515Z,79.70
2018-10-02T06:35:40.691Z,79.70
2018-10-02T06:38:08.736Z,79.70
2018-10-02T06:43:04.781Z,80.30
2018-10-02T06:45:32.936Z,79.50
2018-10-02T06:48:01.008Z,79.50
2018-10-02T06:50:29.084Z,79.30
2018-10-02T06:52:57.179Z,78.90
2018-10-02T06:55:26.420Z,78.40
2018-10-02T06:57:54.468Z,77.80
2018-10-02T07:00:22.494Z,74.40
2018-10-02T07:02:50.717Z,70.30
2018-10-02T07:05:19.956Z,66.60
2018-10-02T07:07:48.045Z,63.40
2018-10-02T07:10:16.107Z,60.80
2018-10-02T07:12:44.258Z,58.70
2018-10-02T07:15:12.612Z,57.10
2018-10-02T07:17:40.692Z,55.00
2018-10-02T07:20:08.707Z,53.40
2018-10-02T07:27:32.928Z,50.00
2018-10-02T07:30:00.900Z,48.70
2018-10-02T07:32:29.181Z,48.50
2018-10-02T07:34:57.457Z,48.00
2018-10-02T07:37:25.482Z,47.40
2018-10-02T07:39:53.548Z,46.90
2018-10-02T07:42:22.585Z,45.90
2018-10-02T07:44:50.700Z,46.20
2018-10-02T07:47:18.680Z,45.50
2018-10-02T07:49:46.844Z,45.50
2018-10-02T07:52:14.818Z,45.50
2018-10-02T07:57:11.059Z,44.70
2018-10-02T07:59:39.104Z,44.50
2018-10-02T08:02:07.687Z,43.90
2018-10-02T08:04:35.824Z,44.60
2018-10-02T08:07:03.873Z,45.00
2018-10-02T08:09:31.963Z,44.70
2018-10-02T08:12:02.212Z,43.60
2018-10-02T08:14:30.286Z,44.20
2018-10-02T08:16:58.302Z,45.70
2018-10-02T08:21:55.434Z,48.80
2018-10-02T08:24:23.548Z,48.30
2018-10-02T08:26:51.873Z,47.10
2018-10-02T08:31:47.999Z,44.20
2018-10-02T08:34:16.044Z,44.50
2018-10-02T08:36:44.117Z,43.30
2018-10-02T08:39:12.183Z,42.90
2018-10-02T08:41:40.619Z,42.50
2018-10-02T08:44:09.867Z,41.40
2018-10-02T08:46:37.962Z,41.10
2018-10-02T08:49:06.036Z,40.80
2018-10-02T08:51:34.073Z,40.80
2018-10-02T08:54:02.224Z,40.90
2018-10-02T08:56:30.213Z,41.50
2018-10-02T08:58:58.430Z,41.20
2018-10-02T09:01:26.716Z,43.10
2018-10-02T09:03:54.731Z,43.50
2018-10-02T09:08:50.552Z,42.20
2018-10-02T09:13:46.774Z,42.20
2018-10-02T09:16:14.900Z,41.50
2018-10-02T09:18:42.922Z,40.90
2018-10-02T09:21:10.954Z,40.80
2018-10-02T09:23:39.008Z,40.70
2018-10-02T09:26:07.059Z,40.00
2018-10-02T09:31:08.587Z,39.40
2018-10-02T09:33:42.392Z,39.30
2018-10-02T09:36:15.812Z,39.90
2018-10-02T09:38:49.741Z,40.10
2018-10-02T09:41:23.530Z,39.70
2018-10-02T09:43:56.285Z,40.20
2018-10-02T09:46:25.303Z,39.70
2018-10-02T09:48:53.322Z,40.00
2018-10-02T10:01:19.192Z,40.40
2018-10-02T10:03:47.460Z,42.40
2018-10-02T10:06:17.683Z,43.10
2018-10-02T10:08:45.744Z,42.50
2018-10-02T10:11:14.153Z,42.80
2018-10-02T10:16:11.128Z,44.10
2018-10-02T10:18:39.352Z,44.00
2018-10-02T10:21:07.371Z,43.00
2018-10-02T10:23:35.421Z,43.00
2018-10-02T10:30:59.676Z,42.50
2018-10-02T10:33:27.724Z,41.50
2018-10-02T10:35:55.829Z,40.50
2018-10-02T10:38:23.838Z,40.60
2018-10-02T10:40:51.908Z,41.50
2018-10-02T10:43:20.268Z,40.70
2018-10-02T10:45:48.389Z,40.10
2018-10-02T10:48:16.465Z,40.40
2018-10-02T10:50:44.498Z,40.80
2018-10-02T10:53:12.645Z,42.50
2018-10-02T10:55:40.652Z,43.40
2018-10-02T10:58:08.731Z,44.30
2018-10-02T11:00:36.824Z,44.20
2018-10-02T11:03:04.943Z,43.90
2018-10-02T11:05:32.892Z,44.30
2018-10-02T11:08:01.007Z,44.70
2018-10-02T11:10:29.134Z,45.70
2018-10-02T11:15:27.611Z,44.90
2018-10-02T11:17:55.766Z,44.10
2018-10-02T11:22:53.535Z,44.90
2018-10-02T11:25:21.919Z,46.70
2018-10-02T11:27:51.197Z,47.00
2018-10-02T11:30:20.262Z,46.60
2018-10-02T11:32:48.445Z,47.20
2018-10-02T11:35:16.690Z,47.30
2018-10-02T11:40:13.447Z,49.00
2018-10-02T11:42:41.659Z,49.50
2018-10-02T11:45:10.568Z,49.00
2018-10-02T11:47:38.737Z,47.90
2018-10-02T11:50:06.915Z,47.20
2018-10-02T11:52:35.202Z,46.00
2018-10-02T11:57:32.137Z,45.20
2018-10-02T12:00:00.344Z,45.30
2018-10-02T12:02:28.525Z,45.00
2018-10-02T12:04:56.762Z,44.90
2018-10-02T12:07:25.172Z,44.90
2018-10-02T12:09:53.216Z,44.20
2018-10-02T12:12:21.303Z,44.30
2018-10-02T12:17:17.438Z,43.60
2018-10-02T12:19:46.064Z,43.40
2018-10-02T12:22:13.904Z,43.40
2018-10-02T12:27:10.120Z,42.40
2018-10-02T12:29:38.392Z,43.20
2018-10-02T12:32:06.497Z,43.50
2018-10-02T12:34:34.553Z,44.20
2018-10-02T12:37:02.691Z,44.20
2018-10-02T12:39:30.705Z,45.30
2018-10-02T12:44:27.772Z,44.20
2018-10-02T12:51:51.951Z,45.50
2018-10-02T12:54:20.110Z,44.30
2018-10-02T12:56:48.132Z,43.90
2018-10-02T12:59:16.212Z,45.00
2018-10-02T13:01:45.500Z,44.10
2018-10-02T13:04:13.460Z,44.80
2018-10-02T13:06:41.652Z,43.70
2018-10-02T13:09:09.714Z,43.60
2018-10-02T13:14:06.168Z,43.60
2018-10-02T13:16:34.261Z,43.50
2018-10-02T13:19:02.325Z,43.30
2018-10-02T13:24:00.907Z,43.00
2018-10-02T13:26:28.971Z,44.00
2018-10-02T13:28:57.092Z,43.90
2018-10-02T13:31:25.084Z,43.50
2018-10-02T13:36:21.248Z,44.10
2018-10-02T13:38:49.308Z,43.10
2018-10-02T13:41:17.426Z,43.40
2018-10-02T13:46:13.404Z,43.10
2018-10-02T13:48:41.633Z,43.40
2018-10-02T13:58:34.216Z,41.90
2018-10-02T14:03:30.423Z,41.70
2018-10-02T14:08:26.801Z,42.50
2018-10-02T14:10:54.795Z,42.50
2018-10-02T14:13:22.895Z,43.30
2018-10-02T14:15:51.023Z,44.00
2018-10-02T14:18:19.103Z,44.10
2018-10-02T14:20:47.203Z,44.50
2018-10-02T14:23:15.208Z,45.00
2018-10-02T14:25:43.272Z,45.70
2018-10-02T14:30:39.925Z,46.20
2018-10-02T14:33:09.116Z,46.50
2018-10-02T14:35:37.431Z,46.90
2018-10-02T14:38:05.663Z,46.90
2018-10-02T14:43:02.872Z,47.50
2018-10-02T14:45:30.945Z,47.50
2018-10-02T14:47:59.012Z,46.80
2018-10-02T14:50:27.142Z,46.90
2018-10-02T14:52:55.156Z,47.90
2018-10-02T14:55:23.205Z,48.10
2018-10-02T15:02:47.147Z,48.50
2018-10-02T15:07:43.335Z,49.20
2018-10-02T15:17:37.370Z,50.20
2018-10-02T15:20:05.474Z,50.30
2018-10-02T15:27:29.372Z,50.80
2018-10-02T15:29:57.687Z,50.90
2018-10-02T15:32:25.819Z,51.20
2018-10-02T15:37:22.263Z,51.60
2018-10-02T15:42:18.451Z,53.00
2018-10-02T15:44:46.628Z,53.70
2018-10-02T15:47:14.563Z,53.50
2018-10-02T15:49:42.644Z,53.90
2018-10-02T15:52:10.694Z,54.90
2018-10-02T15:54:38.739Z,55.60
2018-10-02T15:59:34.857Z,56.50
2018-10-02T16:09:26.882Z,57.00
2018-10-02T16:11:55.279Z,57.20
2018-10-02T16:14:23.358Z,57.30
2018-10-02T16:16:51.456Z,57.60
2018-10-02T16:19:19.484Z,57.90
2018-10-02T16:21:47.687Z,58.10
2018-10-02T16:24:15.628Z,58.10
2018-10-02T16:26:43.668Z,58.10
2018-10-02T16:29:11.764Z,58.40
2018-10-02T16:31:40.160Z,58.10
2018-10-02T16:34:08.230Z,57.30
2018-10-02T16:36:36.295Z,56.30
2018-10-02T16:39:06.759Z,55.70
2018-10-02T16:44:03.861Z,56.40
2018-10-02T16:46:31.968Z,55.90
2018-10-02T16:49:00.427Z,56.30
2018-10-02T16:53:56.484Z,57.20
2018-10-02T16:56:24.585Z,57.50
2018-10-02T16:58:52.589Z,57.40
2018-10-02T17:01:20.665Z,58.70
2018-10-02T17:03:48.890Z,59.20
2018-10-02T17:08:44.928Z,61.30
2018-10-02T17:11:13.005Z,62.20
2018-10-02T17:16:11.269Z,63.50
2018-10-02T17:21:08.380Z,64.90
2018-10-02T17:23:36.389Z,64.60
2018-10-02T17:26:04.445Z,65.00
2018-10-02T17:28:32.538Z,66.10
2018-10-02T17:31:00.637Z,66.50
2018-10-02T17:33:28.781Z,66.80
2018-10-02T17:38:24.628Z,69.20
2018-10-02T17:40:52.880Z,69.50
2018-10-02T17:43:20.959Z,69.20
2018-10-02T17:45:49.088Z,69.40
2018-10-02T17:48:17.117Z,69.60
2018-10-02T17:50:45.231Z,69.90
2018-10-02T17:53:13.251Z,71.10
2018-10-02T17:55:41.359Z,71.40
2018-10-02T17:58:09.754Z,71.90
2018-10-02T18:00:38.129Z,71.40
2018-10-02T18:03:06.416Z,73.40
2018-10-02T18:05:34.580Z,74.10
2018-10-02T18:12:58.433Z,74.40
2018-10-02T18:15:26.501Z,74.90
2018-10-02T18:17:54.578Z,75.50
2018-10-02T18:20:22.656Z,75.70
2018-10-02T18:22:50.737Z,75.40
2018-10-02T18:25:19.697Z,75.30
2018-10-02T18:27:47.772Z,75.90
2018-10-02T18:30:16.753Z,76.30
2018-10-02T18:32:44.870Z,75.70
2018-10-02T18:35:12.909Z,75.50
2018-10-02T18:37:41.007Z,70.60
2018-10-02T18:40:09.049Z,69.40
2018-10-02T18:42:37.115Z,69.00
2018-10-02T18:45:05.220Z,69.20
2018-10-02T18:52:29.091Z,70.10
2018-10-02T18:57:25.488Z,71.10
2018-10-02T18:59:53.799Z,71.90
2018-10-02T19:02:22.134Z,71.50
2018-10-02T19:04:50.398Z,71.50
2018-10-02T19:07:18.468Z,71.60
2018-10-02T19:09:46.504Z,71.40
2018-10-02T19:12:17.991Z,71.70
2018-10-02T19:14:45.940Z,71.90
2018-10-02T19:17:14.222Z,72.30
2018-10-02T19:22:15.561Z,72.60
2018-10-02T19:24:43.921Z,73.00
2018-10-02T19:29:40.173Z,73.90
2018-10-02T19:32:11.314Z,74.40
2018-10-02T19:34:39.527Z,74.80
2018-10-02T19:37:13.193Z,74.90
2018-10-02T19:42:09.296Z,75.80
2018-10-02T19:44:37.399Z,76.10
2018-10-02T19:47:05.428Z,76.20
2018-10-02T19:49:34.490Z,76.80
2018-10-02T19:52:08.187Z,77.50
2018-10-02T19:57:06.240Z,77.70
2018-10-02T19:59:34.352Z,77.80
2018-10-02T20:02:02.507Z,78.00
2018-10-02T20:04:30.524Z,78.30
2018-10-02T20:09:26.689Z,78.20
2018-10-02T20:14:23.832Z,78.80
2018-10-02T20:19:19.924Z,79.00
2018-10-02T20:24:16.283Z,79.30
2018-10-02T20:26:44.287Z,79.70
2018-10-02T20:31:42.529Z,80.50
2018-10-02T20:34:11.752Z,80.60
2018-10-02T20:36:40.139Z,81.00
2018-10-02T20:39:09.368Z,81.30
2018-10-02T20:41:37.453Z,81.90
2018-10-02T20:44:05.749Z,82.30
2018-10-02T20:51:30.116Z,83.20
2018-10-02T20:56:27.132Z,83.80
2018-10-02T20:58:55.531Z,83.90
2018-10-02T21:01:23.789Z,84.20
2018-10-02T21:03:52.004Z,84.50
2018-10-02T21:06:20.276Z,84.50
2018-10-02T21:13:44.473Z,84.60
2018-10-02T21:16:12.548Z,84.40
2018-10-02T21:18:40.652Z,84.60
2018-10-02T21:21:08.684Z,84.60
2018-10-02T21:23:36.805Z,84.50
2018-10-02T21:26:04.771Z,84.60
2018-10-02T21:28:32.969Z,84.70
2018-10-02T21:31:00.996Z,85.10
2018-10-02T21:33:29.085Z,85.20
2018-10-02T21:35:57.265Z,85.60
2018-10-02T21:38:25.496Z,85.80
2018-10-02T21:40:53.611Z,85.60
2018-10-02T21:43:21.652Z,85.90
2018-10-02T21:52:49.069Z,86.60
2018-10-02T22:00:13.125Z,86.30
2018-10-02T22:02:42.294Z,86.40
2018-10-02T22:07:38.368Z,86.90
2018-10-02T22:12:34.568Z,87.30
2018-10-02T22:15:02.736Z,87.60
2018-10-02T22:17:30.712Z,87.60
2018-10-02T22:19:58.772Z,87.80
2018-10-02T22:22:26.853Z,87.80
2018-10-02T22:24:54.892Z,87.70
2018-10-02T22:27:22.978Z,87.60
2018-10-02T22:29:51.032Z,87.70
2018-10-02T22:32:19.231Z,87.70
2018-10-02T22:34:47.505Z,87.50
2018-10-02T22:39:43.719Z,87.80
2018-10-02T22:42:12.005Z,88.10
2018-10-02T22:49:36.288Z,88.40
2018-10-02T22:54:32.456Z,88.50
2018-10-02T22:57:01.046Z,88.50
2018-10-02T22:59:29.065Z,88.20
2018-10-02T23:01:57.208Z,88.50
2018-10-02T23:04:25.265Z,88.70
2018-10-02T23:06:53.392Z,88.90
2018-10-02T23:09:21.401Z,88.90
2018-10-02T23:14:17.580Z,89.10
2018-10-02T23:16:46.534Z,89.10
2018-10-02T23:19:14.628Z,89.00
2018-10-02T23:24:10.821Z,89.10
2018-10-02T23:26:38.817Z,89.10
2018-10-02T23:29:06.996Z,89.00
2018-10-02T23:31:35.311Z,89.10
2018-10-02T23:34:03.397Z,89.20
2018-10-02T23:36:31.518Z,89.00
2018-10-02T23:38:59.780Z,88.80
2018-10-02T23:41:27.764Z,88.80
2018-10-02T23:43:55.948Z,88.60
2018-10-02T23:46:24.012Z,88.80
2018-10-02T23:48:52.070Z,88.90
2018-10-02T23:51:20.652Z,88.70
2018-10-02T23:53:48.909Z,88.60
2018-10-02T23:56:16.970Z,88.20
2018-10-02T23:58:44.985Z,88.20
